KTCC/TCC METAR and TAF weather

Enter ICAO airport designator
Station Type Date Time Source
KTCC METAR 2019/12/07 16:53 UTC NOAA

KTCC 071653Z AUTO 24011KT 10SM CLR 12/02 A3015 RMK AO2 SLP194 T01170022


Station Type Date Time Source
KTCC Decoded METAR 2019/12/07 16:53 UTC NOAA

TUCUMCARI MUNICIPAL AIRPORT , NM, United States (KTCC) 35-11N 103-36W 1235M
Dec 07, 2019 - 11:53 AM EST / 2019.12.07 1653 UTC
Wind: from the WSW (240 degrees) at 13 MPH (11 KT):0
Visibility: 10 mile(s):0
Sky conditions: clear
Temperature: 53.1 F (11.7 C)
Dew Point: 36.0 F (2.2 C)
Relative Humidity: 52%
Pressure (altimeter): 30.15 in. Hg (1020 hPa)
ob: KTCC 071653Z AUTO 24011KT 10SM CLR 12/02 A3015 RMK AO2 SLP194 T01170022
cycle: 17

Station Type Date Time Source
KTCC TAF 2019/12/07 18:24 UTC NOAA

TAF KTCC 071721Z 0718/0818 24015G25KT P6SM SCT250
FM080100 24015KT P6SM SCT250
FM080900 26010KT P6SM BKN200
FM081700 25016G24KT P6SM BKN150

Example: see airport list